Valley Springs, South Dakota
Current Conditions -  °F | °C
As of 11:54 PM on Tuesday 21 Oct 2014 (Local Time) from KLYV Reporting Station
Clear Clear  
Wind Chill: 12°   Ceiling: Unl
Heat Index: 12°   Visibility: 10mi
Dew Point:   Wind: 8mph
Humidity: 67%   Direction: 160°SSE
Pressure: 30.06"   Gusts: NA
Location:  43.58°N, 96.47°W
Report Text: KLYV 220454Z AUTO 16007KT 10SM CLR 12/06 A3006 RMK AO2
Loading
Personal Weather Stations






























Interactive Weather Map
Tropical Storm Tracking
New forecast layout! Learn more

10-Day Weather Forecast

Advertisements
Track Severe Weather on mobile